Time;durP1;ratioP1;P1;durP2;ratioP2;P2;SDS_P1;SDS_P2;PMS_P1;PMS_P2;Temp;Humidity;BMP_temperature;BMP_pressure;BME280_temperature;BME280_humidity;BME280_pressure;Samples;Min_cycle;Max_cycle;Signal;HPM_P1;HPM_P2
2023/05/09 00:00:37;;;;;;;7.80;4.20;;;14.40;69.30;;;;;;5038097;28;20045;-47
2023/05/09 00:03:04;;;;;;;7.47;3.85;;;14.40;69.20;;;;;;5038000;28;20029;-50
2023/05/09 00:05:31;;;;;;;5.90;4.78;;;14.40;69.20;;;;;;5056099;28;20025;-47
2023/05/09 00:07:58;;;;;;;6.68;4.45;;;14.40;69.30;;;;;;5055980;28;20029;-49
2023/05/09 00:10:26;;;;;;;4.72;3.72;;;14.30;69.80;;;;;;5038326;28;20049;-47
2023/05/09 00:12:52;;;;;;;4.97;4.03;;;14.40;69.80;;;;;;5052295;28;20029;-48
2023/05/09 00:15:19;;;;;;;8.57;4.13;;;14.30;69.90;;;;;;5075804;28;20128;-49
2023/05/09 00:17:46;;;;;;;6.68;4.40;;;14.30;70.20;;;;;;5056692;28;20036;-48
2023/05/09 00:20:14;;;;;;;7.63;4.88;;;14.20;70.60;;;;;;5057809;28;20054;-47
2023/05/09 00:22:46;;;;;;;7.47;4.25;;;14.20;70.80;;;;;;5073929;28;20028;-47
2023/05/09 00:25:17;;;;;;;7.20;4.68;;;14.10;70.90;;;;;;5055326;28;20024;-48
2023/05/09 00:27:43;;;;;;;4.85;4.25;;;14.10;70.70;;;;;;5055286;28;20387;-48
2023/05/09 00:30:10;;;;;;;8.02;4.82;;;14.10;71.20;;;;;;5055634;28;20053;-48
2023/05/09 00:32:40;;;;;;;6.47;5.25;;;14.00;71.40;;;;;;5055234;28;20029;-47
2023/05/09 00:35:10;;;;;;;8.30;4.60;;;14.00;71.40;;;;;;5055353;28;20025;-47
2023/05/09 00:37:37;;;;;;;6.78;5.00;;;13.90;71.50;;;;;;5055370;28;20028;-47
2023/05/09 00:40:06;;;;;;;7.13;4.43;;;13.90;71.80;;;;;;5055283;28;20021;-48
2023/05/09 00:42:34;;;;;;;6.72;4.55;;;13.90;71.70;;;;;;5055039;28;20340;-47
2023/05/09 00:45:01;;;;;;;6.32;4.32;;;13.90;71.90;;;;;;5037276;28;20066;-49
2023/05/09 00:47:28;;;;;;;7.10;4.97;;;13.80;72.00;;;;;;5054999;28;20043;-47
2023/05/09 00:49:58;;;;;;;5.20;4.40;;;13.80;71.90;;;;;;5055004;28;20025;-48
2023/05/09 00:52:28;;;;;;;5.97;4.25;;;13.80;72.20;;;;;;5037630;28;20358;-48
2023/05/09 00:54:55;;;;;;;5.30;4.03;;;13.70;72.20;;;;;;5055091;28;20442;-49
2023/05/09 00:57:22;;;;;;;6.38;4.13;;;13.70;72.20;;;;;;5055109;28;20399;-47
2023/05/09 00:59:48;;;;;;;5.72;4.50;;;13.70;72.30;;;;;;5048861;28;20025;-48
2023/05/09 01:02:19;;;;;;;5.30;4.57;;;13.60;72.40;;;;;;5074967;28;20021;-47
2023/05/09 01:04:45;;;;;;;8.75;4.88;;;13.60;72.20;;;;;;5056793;28;20040;-47
2023/05/09 01:07:50;;;;;;;5.35;4.38;;;13.60;72.50;;;;;;5054631;28;20033;-50
2023/05/09 01:10:31;;;;;;;5.75;4.35;;;13.60;72.50;;;;;;5051685;28;20048;-49
2023/05/09 01:13:32;;;;;;;5.85;4.28;;;13.50;72.20;;;;;;5074757;28;20036;-47
2023/05/09 01:16:33;;;;;;;6.60;4.68;;;13.50;72.40;;;;;;4996352;28;20362;-48
2023/05/09 01:19:30;;;;;;;5.72;4.18;;;13.50;72.40;;;;;;5051459;28;20091;-49
2023/05/09 01:21:59;;;;;;;8.13;4.60;;;13.50;72.30;;;;;;5054500;28;20044;-48
2023/05/09 01:25:04;;;;;;;6.85;4.57;;;13.40;72.30;;;;;;5054580;28;20025;-47
2023/05/09 01:28:06;;;;;;;5.53;3.67;;;13.40;72.60;;;;;;5053713;28;20033;-50
2023/05/09 01:30:36;;;;;;;6.07;3.92;;;13.40;72.40;;;;;;5054356;28;20033;-47
2023/05/09 01:33:06;;;;;;;5.13;4.13;;;13.40;72.30;;;;;;5054259;28;20159;-47
2023/05/09 01:35:36;;;;;;;5.65;3.80;;;13.40;72.00;;;;;;5053947;28;20454;-47
2023/05/09 01:38:08;;;;;;;;;;;13.40;71.90;;;;;;5054830;28;20025;-48
2023/05/09 01:40:37;;;;;;;6.90;4.22;;;13.40;72.00;;;;;;5058034;28;20030;-48
2023/05/09 01:43:10;;;;;;;5.85;3.60;;;13.40;71.70;;;;;;5073995;28;20025;-47
2023/05/09 01:45:38;;;;;;;6.43;4.28;;;13.40;71.90;;;;;;5073606;28;20025;-47
2023/05/09 01:48:07;;;;;;;7.00;4.68;;;13.40;72.00;;;;;;5051831;28;20021;-47
2023/05/09 01:50:36;;;;;;;4.95;4.00;;;13.30;72.40;;;;;;5036263;28;20037;-48
2023/05/09 01:53:07;;;;;;;9.32;3.47;;;13.30;72.60;;;;;;5053298;28;20530;-47
2023/05/09 01:55:38;;;;;;;8.95;4.72;;;13.30;72.10;;;;;;5035472;28;20041;-47
2023/05/09 01:58:07;;;;;;;6.97;4.88;;;13.30;72.20;;;;;;5052783;28;20025;-48
2023/05/09 02:00:36;;;;;;;7.00;4.63;;;13.30;72.30;;;;;;5053414;28;20124;-48
2023/05/09 02:03:04;;;;;;;10.45;4.72;;;13.20;72.40;;;;;;5073651;28;20029;-51
2023/05/09 02:05:32;;;;;;;6.20;4.35;;;13.20;72.40;;;;;;5055871;28;20342;-49
2023/05/09 02:08:00;;;;;;;7.75;4.40;;;13.20;72.60;;;;;;5073613;28;20037;-47
2023/05/09 02:10:28;;;;;;;5.25;4.28;;;13.20;72.50;;;;;;5059587;28;20068;-49
2023/05/09 02:12:56;;;;;;;8.52;4.78;;;13.20;72.50;;;;;;5036116;28;20055;-48
2023/05/09 02:15:24;;;;;;;6.05;4.45;;;13.10;72.30;;;;;;5053363;28;20040;-48
2023/05/09 02:17:51;;;;;;;8.27;4.25;;;13.10;72.40;;;;;;5053444;28;20555;-47
2023/05/09 02:20:18;;;;;;;6.70;3.35;;;13.10;72.40;;;;;;5053281;28;20021;-48
2023/05/09 02:22:45;;;;;;;7.20;3.28;;;13.00;71.80;;;;;;5035732;28;20040;-47
2023/05/09 02:25:14;;;;;;;6.10;3.90;;;13.00;72.00;;;;;;5053464;28;20100;-49
2023/05/09 02:27:41;;;;;;;6.13;3.80;;;13.00;71.90;;;;;;5053226;28;20017;-49
2023/05/09 02:30:12;;;;;;;4.85;3.75;;;13.00;71.90;;;;;;5035364;28;20036;-49
2023/05/09 02:32:43;;;;;;;4.95;3.65;;;12.90;72.30;;;;;;5035286;28;20040;-50
2023/05/09 02:35:11;;;;;;;6.07;4.10;;;12.90;71.80;;;;;;5052846;28;20028;-49
2023/05/09 02:37:38;;;;;;;5.65;3.90;;;12.90;72.40;;;;;;5035363;28;20044;-48
2023/05/09 02:40:11;;;;;;;6.32;3.50;;;12.90;72.20;;;;;;5052706;28;20473;-47
2023/05/09 02:42:38;;;;;;;5.53;3.72;;;12.90;72.30;;;;;;5061689;28;20040;-47
2023/05/09 02:45:06;;;;;;;7.50;4.05;;;12.90;72.20;;;;;;5073191;28;20020;-47
2023/05/09 02:47:38;;;;;;;6.32;3.88;;;12.90;72.30;;;;;;5040466;28;20426;-47
2023/05/09 02:50:05;;;;;;;12.00;4.15;;;12.80;71.90;;;;;;5052982;28;20021;-50
2023/05/09 02:52:37;;;;;;;5.60;3.90;;;12.80;72.50;;;;;;5052983;28;20031;-47
2023/05/09 02:55:06;;;;;;;7.05;4.22;;;12.80;72.70;;;;;;5053025;28;20033;-48
2023/05/09 02:57:35;;;;;;;7.00;3.63;;;12.80;72.50;;;;;;5052756;28;20025;-50
2023/05/09 03:00:08;;;;;;;8.70;3.90;;;12.70;72.10;;;;;;5072566;28;20068;-48
2023/05/09 03:02:35;;;;;;;9.50;5.07;;;12.70;72.40;;;;;;5073004;28;20063;-47
2023/05/09 03:05:02;;;;;;;6.53;4.40;;;12.60;72.10;;;;;;5072980;28;20032;-49
2023/05/09 03:07:29;;;;;;;5.70;4.38;;;12.70;72.40;;;;;;5058357;28;20025;-47
2023/05/09 03:09:58;;;;;;;6.55;3.88;;;12.60;72.40;;;;;;5056912;28;20048;-50
2023/05/09 03:12:30;;;;;;;5.17;3.60;;;12.60;72.50;;;;;;5057003;28;20021;-51
2023/05/09 03:14:57;;;;;;;5.72;3.90;;;12.60;72.30;;;;;;5039392;28;20279;-48
2023/05/09 03:17:26;;;;;;;10.50;4.15;;;12.50;71.90;;;;;;5056774;28;20025;-48
2023/05/09 03:19:53;;;;;;;5.93;3.78;;;12.50;72.20;;;;;;5039846;28;20017;-49
2023/05/09 03:22:22;;;;;;;5.28;3.80;;;12.50;72.40;;;;;;5056823;28;20052;-50
2023/05/09 03:24:47;;;;;;;9.27;4.10;;;12.40;72.50;;;;;;5073277;28;20040;-50
2023/05/09 03:27:15;;;;;;;6.20;3.90;;;12.50;72.60;;;;;;5077147;28;20037;-48
2023/05/09 03:29:40;;;;;;;7.07;4.70;;;12.40;72.60;;;;;;5076708;28;20036;-47
2023/05/09 03:32:09;;;;;;;7.63;4.03;;;12.50;72.70;;;;;;5072485;28;20343;-48
2023/05/09 03:34:35;;;;;;;5.78;4.28;;;12.40;72.30;;;;;;5056589;28;20033;-47
2023/05/09 03:37:07;;;;;;;7.85;4.13;;;12.40;72.40;;;;;;5056365;28;20371;-48
2023/05/09 03:39:36;;;;;;;8.07;3.90;;;12.40;72.90;;;;;;5056649;28;20402;-49
2023/05/09 03:42:03;;;;;;;4.85;4.15;;;12.40;73.10;;;;;;5056310;28;20037;-47
2023/05/09 03:44:30;;;;;;;5.25;3.80;;;12.30;73.00;;;;;;5056434;28;20036;-47
2023/05/09 03:46:57;;;;;;;5.13;3.95;;;12.30;72.90;;;;;;5071293;28;20040;-47
2023/05/09 03:49:24;;;;;;;7.40;4.63;;;12.30;73.00;;;;;;5076239;28;20445;-49
2023/05/09 03:51:51;;;;;;;7.85;3.85;;;12.30;73.20;;;;;;5076460;28;20032;-47
2023/05/09 03:54:23;;;;;;;6.13;3.58;;;12.30;73.20;;;;;;5076282;28;20028;-47
2023/05/09 03:56:50;;;;;;;5.50;4.15;;;12.40;73.10;;;;;;5060568;28;20366;-47
2023/05/09 03:59:17;;;;;;;7.13;3.83;;;12.40;73.10;;;;;;5055926;28;20132;-49
2023/05/09 04:01:46;;;;;;;5.65;3.67;;;12.40;73.00;;;;;;5055937;28;20418;-47
2023/05/09 04:04:13;;;;;;;5.55;3.83;;;12.40;73.20;;;;;;5056226;28;20029;-47
2023/05/09 04:06:39;;;;;;;7.07;3.88;;;12.40;73.10;;;;;;5038370;28;20135;-47
2023/05/09 04:09:09;;;;;;;5.25;3.78;;;12.50;72.70;;;;;;5055739;28;20481;-48
2023/05/09 04:11:38;;;;;;;11.93;3.55;;;12.50;72.70;;;;;;5055706;28;20474;-47
2023/05/09 04:14:06;;;;;;;4.80;3.28;;;12.60;72.60;;;;;;5055387;28;20040;-48
2023/05/09 04:16:33;;;;;;;5.10;3.85;;;12.70;72.30;;;;;;5038381;28;20047;-47
2023/05/09 04:19:00;;;;;;;8.63;3.38;;;12.70;71.50;;;;;;5055203;28;20025;-48
2023/05/09 04:21:30;;;;;;;7.18;3.50;;;12.80;71.40;;;;;;5055745;28;20020;-52
2023/05/09 04:23:57;;;;;;;7.10;4.78;;;12.90;71.00;;;;;;5038004;28;20435;-49
2023/05/09 04:26:24;;;;;;;6.13;3.72;;;13.00;70.90;;;;;;5038048;28;20067;-47
2023/05/09 04:28:55;;;;;;;6.07;3.47;;;13.20;70.60;;;;;;5055536;28;20032;-47
2023/05/09 04:31:22;;;;;;;10.88;4.47;;;13.30;69.90;;;;;;5055673;28;20357;-47
2023/05/09 04:33:48;;;;;;;7.85;3.95;;;13.30;70.10;;;;;;5055413;28;20029;-48
2023/05/09 04:36:15;;;;;;;6.38;3.67;;;13.30;69.90;;;;;;5055290;28;20029;-47
2023/05/09 04:38:41;;;;;;;6.00;3.88;;;13.30;69.50;;;;;;5055274;28;20033;-49
2023/05/09 04:41:08;;;;;;;5.75;3.53;;;13.40;69.40;;;;;;5055468;28;20035;-47
2023/05/09 04:43:35;;;;;;;8.75;3.95;;;13.50;69.00;;;;;;5055891;28;20056;-49
2023/05/09 04:46:02;;;;;;;7.82;3.78;;;13.50;69.20;;;;;;5075159;28;20474;-47
2023/05/09 04:48:29;;;;;;;8.68;3.83;;;13.60;68.80;;;;;;5074899;28;20036;-47
2023/05/09 04:50:55;;;;;;;7.57;3.83;;;13.60;68.80;;;;;;5063753;28;20504;-47
2023/05/09 04:53:22;;;;;;;6.65;4.18;;;13.60;68.20;;;;;;5055213;28;20098;-49
2023/05/09 04:55:50;;;;;;;8.32;3.92;;;13.50;68.70;;;;;;5054939;28;20343;-48
2023/05/09 04:58:17;;;;;;;8.07;3.83;;;13.40;69.20;;;;;;5054984;28;20056;-47
2023/05/09 05:00:44;;;;;;;6.05;3.60;;;13.30;69.10;;;;;;5054821;28;20443;-48
2023/05/09 05:03:11;;;;;;;10.23;3.63;;;13.30;69.10;;;;;;5068229;28;20036;-51
2023/05/09 05:05:40;;;;;;;6.45;3.75;;;13.20;69.80;;;;;;5071132;28;20929;-49
2023/05/09 05:08:07;;;;;;;7.32;3.97;;;13.20;69.70;;;;;;5054715;28;20025;-47
2023/05/09 05:10:34;;;;;;;9.38;4.53;;;13.10;69.20;;;;;;5054615;28;20530;-47
2023/05/09 05:13:01;;;;;;;8.07;3.80;;;13.00;69.70;;;;;;5054500;28;20025;-51
2023/05/09 05:15:28;;;;;;;8.38;4.97;;;13.00;69.90;;;;;;5037121;28;20107;-47
2023/05/09 05:17:58;;;;;;;7.68;4.10;;;12.90;69.50;;;;;;5054554;28;20024;-53
2023/05/09 05:20:24;;;;;;;;;;;12.90;69.80;;;;;;5055001;28;20049;-49
2023/05/09 05:22:54;;;;;;;6.88;3.60;;;12.90;70.20;;;;;;5054582;28;20322;-48
2023/05/09 05:25:23;;;;;;;12.40;4.40;;;12.90;70.80;;;;;;5054629;28;20091;-47
2023/05/09 05:27:50;;;;;;;7.00;4.50;;;12.90;70.10;;;;;;5054360;28;20033;-48
2023/05/09 05:30:17;;;;;;;7.00;4.18;;;12.90;70.10;;;;;;5054357;28;20113;-48
2023/05/09 05:32:44;;;;;;;8.27;4.60;;;13.00;70.40;;;;;;5053303;28;20504;-48
2023/05/09 05:35:11;;;;;;;7.03;4.03;;;13.00;70.50;;;;;;5054324;28;20017;-49
2023/05/09 05:37:37;;;;;;;9.15;4.53;;;13.00;70.40;;;;;;5063619;28;20027;-50
2023/05/09 05:40:05;;;;;;;8.10;4.80;;;13.00;70.00;;;;;;5056563;28;20021;-51
2023/05/09 05:42:32;;;;;;;8.95;4.35;;;13.00;69.90;;;;;;5074211;28;20035;-49
2023/05/09 05:45:05;;;;;;;6.20;4.35;;;13.20;70.20;;;;;;5066320;28;20028;-49
2023/05/09 05:47:35;;;;;;;5.90;3.88;;;13.20;70.30;;;;;;5053322;28;20069;-47
2023/05/09 05:50:05;;;;;;;13.35;4.75;;;13.30;70.50;;;;;;5053916;28;20029;-48
2023/05/09 05:52:32;;;;;;;6.70;4.22;;;13.40;70.00;;;;;;5053999;28;20029;-47
2023/05/09 05:54:58;;;;;;;6.60;4.20;;;13.60;69.70;;;;;;5053623;28;20459;-48
2023/05/09 05:57:25;;;;;;;7.88;4.65;;;13.60;69.40;;;;;;5053402;28;20119;-50
2023/05/09 05:59:56;;;;;;;9.20;4.82;;;13.60;69.50;;;;;;5056180;28;20040;-50
2023/05/09 06:02:23;;;;;;;10.45;4.93;;;13.70;69.30;;;;;;5073713;28;20036;-49
2023/05/09 06:04:52;;;;;;;9.38;4.82;;;13.70;69.30;;;;;;5065367;28;20125;-49
2023/05/09 06:07:25;;;;;;;9.55;4.65;;;13.70;69.60;;;;;;5036172;28;20442;-49
2023/05/09 06:09:50;;;;;;;9.23;4.07;;;13.70;70.10;;;;;;5040824;28;20059;-47
2023/05/09 06:12:17;;;;;;;8.23;5.28;;;13.70;69.80;;;;;;5055674;28;20029;-49
2023/05/09 06:14:44;;;;;;;9.88;4.63;;;13.70;69.30;;;;;;5065063;28;20043;-47
2023/05/09 06:17:10;;;;;;;8.85;4.85;;;13.60;69.40;;;;;;5052854;28;20338;-48
2023/05/09 06:19:37;;;;;;;9.05;4.75;;;13.70;69.20;;;;;;5053089;28;20035;-49
2023/05/09 06:22:03;;;;;;;11.05;5.22;;;13.70;69.20;;;;;;5053027;28;20021;-48
2023/05/09 06:24:28;;;;;;;10.70;5.63;;;13.80;69.60;;;;;;5064107;28;20374;-50
2023/05/09 06:26:55;;;;;;;7.35;4.35;;;13.90;69.80;;;;;;5051048;28;20107;-49
2023/05/09 06:29:22;;;;;;;13.75;5.53;;;14.00;69.70;;;;;;5035680;28;20438;-48
2023/05/09 06:31:49;;;;;;;7.53;5.00;;;14.20;69.00;;;;;;5052979;28;20025;-49
2023/05/09 06:34:16;;;;;;;6.90;4.40;;;14.30;68.50;;;;;;5053230;28;20446;-47
2023/05/09 06:36:45;;;;;;;9.32;4.50;;;14.40;68.50;;;;;;5052891;28;20109;-48
2023/05/09 06:39:12;;;;;;;6.72;4.65;;;14.40;67.00;;;;;;5053189;28;20086;-49
2023/05/09 06:41:39;;;;;;;6.68;4.65;;;14.50;67.50;;;;;;5053148;28;20028;-51
2023/05/09 06:44:09;;;;;;;9.18;3.95;;;14.70;67.40;;;;;;5052709;28;20021;-54
2023/05/09 06:46:38;;;;;;;9.05;5.03;;;14.90;67.70;;;;;;5053469;28;20370;-49
2023/05/09 06:49:05;;;;;;;7.00;4.68;;;15.00;67.20;;;;;;5035427;28;20053;-48
2023/05/09 06:51:31;;;;;;;6.78;4.60;;;15.10;66.00;;;;;;5052869;28;20037;-47
2023/05/09 06:53:58;;;;;;;7.50;4.65;;;15.20;65.60;;;;;;5041102;28;20052;-47
2023/05/09 06:56:25;;;;;;;9.75;4.93;;;15.40;66.10;;;;;;5072904;28;20032;-47
2023/05/09 06:58:52;;;;;;;7.55;4.53;;;15.40;66.30;;;;;;5056389;28;20443;-47
2023/05/09 07:01:20;;;;;;;6.97;4.95;;;15.50;66.10;;;;;;5052991;28;20027;-51
2023/05/09 07:03:46;;;;;;;7.85;5.07;;;15.60;65.50;;;;;;5052840;28;20025;-49
2023/05/09 07:06:13;;;;;;;7.50;4.55;;;15.90;65.80;;;;;;5052624;28;20033;-48
2023/05/09 07:08:41;;;;;;;7.90;4.78;;;16.10;64.60;;;;;;5034715;28;20044;-48
2023/05/09 07:11:13;;;;;;;7.00;5.22;;;16.20;64.30;;;;;;5052549;28;20053;-48
2023/05/09 07:13:40;;;;;;;8.48;4.88;;;16.40;64.10;;;;;;5035107;28;20041;-50
2023/05/09 07:16:07;;;;;;;7.30;5.35;;;16.60;63.50;;;;;;5052708;28;20025;-48
2023/05/09 07:18:34;;;;;;;9.63;5.28;;;16.80;63.70;;;;;;5052650;28;20461;-48
2023/05/09 07:21:01;;;;;;;6.97;4.95;;;16.80;63.60;;;;;;5052311;28;20029;-49
2023/05/09 07:23:27;;;;;;;7.18;4.70;;;16.90;63.80;;;;;;5052598;28;20021;-47
2023/05/09 07:25:57;;;;;;;12.88;5.93;;;16.90;64.00;;;;;;5052599;28;20035;-48
2023/05/09 07:28:27;;;;;;;8.52;6.07;;;16.70;63.80;;;;;;5052515;28;20020;-47
2023/05/09 07:30:55;;;;;;;18.05;5.80;;;16.60;64.60;;;;;;5053054;28;20036;-50
2023/05/09 07:33:21;;;;;;;10.10;5.53;;;16.50;65.50;;;;;;5035154;28;20029;-52
2023/05/09 07:35:48;;;;;;;8.82;6.50;;;16.50;65.80;;;;;;5035273;28;20029;-48
2023/05/09 07:38:15;;;;;;;10.18;5.85;;;16.60;65.90;;;;;;5052297;28;20032;-49
2023/05/09 07:40:42;;;;;;;9.30;5.55;;;16.70;66.20;;;;;;5052459;28;20419;-48
2023/05/09 07:43:08;;;;;;;9.77;6.40;;;16.90;66.60;;;;;;5060177;28;20032;-47
2023/05/09 07:45:35;;;;;;;8.63;6.13;;;17.10;66.60;;;;;;5054928;28;20052;-48
2023/05/09 07:48:03;;;;;;;8.75;5.38;;;17.40;65.10;;;;;;5054741;28;20047;-51
2023/05/09 07:50:30;;;;;;;8.02;5.82;;;17.40;65.80;;;;;;5072328;28;20037;-48
2023/05/09 07:52:56;;;;;;;8.23;5.70;;;17.50;66.80;;;;;;5055404;28;20098;-49
2023/05/09 07:55:23;;;;;;;9.98;6.22;;;17.70;66.00;;;;;;5054176;28;20393;-52
2023/05/09 07:57:50;;;;;;;7.75;6.47;;;17.80;66.10;;;;;;5056129;28;20424;-49
2023/05/09 08:00:22;;;;;;;6.70;5.45;;;17.90;64.80;;;;;;5056002;28;20451;-54
2023/05/09 08:02:51;;;;;;;8.38;5.75;;;17.90;65.60;;;;;;5056200;28;20099;-50
2023/05/09 08:05:19;;;;;;;11.05;6.13;;;17.90;66.00;;;;;;5056140;28;20545;-49
2023/05/09 08:07:45;;;;;;;8.70;6.90;;;17.90;65.40;;;;;;5038398;28;20387;-50
2023/05/09 08:10:12;;;;;;;8.90;6.60;;;17.90;65.90;;;;;;5055651;28;20114;-50
2023/05/09 08:12:39;;;;;;;8.75;7.38;;;18.00;65.30;;;;;;5056183;28;20031;-47
2023/05/09 08:15:07;;;;;;;9.02;6.80;;;17.90;66.00;;;;;;5056027;28;20086;-54
2023/05/09 08:17:34;;;;;;;9.15;7.15;;;17.80;65.30;;;;;;5038258;28;20029;-48
2023/05/09 08:19:59;;;;;;;8.30;6.00;;;17.60;65.70;;;;;;5065785;28;20063;-50
2023/05/09 08:22:26;;;;;;;9.90;6.70;;;17.60;66.50;;;;;;5075936;28;20016;-49
2023/05/09 08:24:52;;;;;;;11.23;7.30;;;17.70;67.00;;;;;;5058197;28;20025;-50
2023/05/09 08:27:19;;;;;;;12.98;7.88;;;17.70;67.60;;;;;;5075428;28;20112;-50
2023/05/09 08:29:45;;;;;;;9.27;7.93;;;17.60;67.30;;;;;;5054605;28;20377;-49
2023/05/09 08:32:12;;;;;;;9.15;8.20;;;17.60;66.20;;;;;;5055626;28;20033;-47
2023/05/09 08:34:38;;;;;;;9.48;6.95;;;17.60;67.10;;;;;;5055356;28;20078;-47
2023/05/09 08:37:05;;;;;;;12.50;7.68;;;17.60;66.60;;;;;;5038045;28;20041;-47
2023/05/09 08:39:33;;;;;;;8.48;7.25;;;18.10;66.40;;;;;;5055469;28;20021;-48
2023/05/09 08:42:03;;;;;;;9.03;7.50;;;19.00;64.90;;;;;;5055615;28;20049;-48
2023/05/09 08:44:31;;;;;;;;;;;19.80;63.00;;;;;;5062803;28;20028;-49
2023/05/09 08:47:02;;;;;;;9.55;6.32;;;20.20;60.60;;;;;;5075466;28;19915;-48
2023/05/09 08:49:30;;;;;;;12.52;7.85;;;20.70;61.10;;;;;;5075035;28;20024;-47
2023/05/09 08:51:57;;;;;;;7.90;7.03;;;21.10;60.00;;;;;;5074446;28;20100;-50
2023/05/09 08:54:24;;;;;;;8.80;7.72;;;21.30;59.20;;;;;;5055620;28;20044;-49
2023/05/09 08:56:53;;;;;;;8.90;6.97;;;21.30;58.20;;;;;;5055258;28;20043;-48
2023/05/09 08:59:23;;;;;;;10.13;7.68;;;21.60;59.50;;;;;;5054948;28;20438;-48
2023/05/09 09:01:52;;;;;;;7.60;6.80;;;21.70;58.00;;;;;;5037350;28;20378;-48
2023/05/09 09:04:20;;;;;;;7.90;7.10;;;21.70;58.00;;;;;;5055023;28;20688;-50
2023/05/09 09:06:48;;;;;;;8.60;7.80;;;21.70;58.00;;;;;;5054842;28;20033;-50
2023/05/09 09:09:17;;;;;;;8.55;7.70;;;21.60;57.70;;;;;;5037380;28;20416;-48
2023/05/09 09:11:44;;;;;;;;;;;21.40;58.70;;;;;;5054960;28;20053;-52
2023/05/09 09:14:19;;;;;;;8.15;7.35;;;21.60;58.90;;;;;;5037285;28;19909;-49
2023/05/09 09:16:47;;;;;;;8.90;8.10;;;21.50;58.70;;;;;;5020960;28;20051;-49
2023/05/09 09:19:16;;;;;;;11.23;9.32;;;21.20;58.70;;;;;;5054326;28;20459;-48
2023/05/09 09:21:46;;;;;;;9.98;8.65;;;20.90;59.60;;;;;;5037475;28;20028;-52
2023/05/09 09:24:13;;;;;;;10.88;9.35;;;20.70;60.50;;;;;;5054647;28;20119;-50
2023/05/09 09:26:49;;;;;;;11.20;8.20;;;20.70;61.60;;;;;;5037383;28;20048;-52
2023/05/09 09:29:17;;;;;;;10.13;8.40;;;20.90;61.40;;;;;;5054092;28;20363;-50
2023/05/09 09:31:52;;;;;;;10.15;9.15;;;21.00;60.70;;;;;;5056486;28;20107;-50
2023/05/09 09:34:22;;;;;;;9.20;8.30;;;21.20;60.60;;;;;;5072063;28;20051;-49
2023/05/09 09:36:49;;;;;;;9.13;8.27;;;20.90;60.20;;;;;;5036891;28;20029;-48
2023/05/09 09:39:17;;;;;;;9.63;8.57;;;20.90;62.00;;;;;;5054100;28;20017;-49
2023/05/09 09:41:44;;;;;;;10.82;9.27;;;20.90;61.10;;;;;;5036589;28;20033;-51
2023/05/09 09:44:29;;;;;;;10.93;9.82;;;20.90;60.70;;;;;;5054266;28;20109;-49
2023/05/09 09:46:57;;;;;;;12.05;8.55;;;20.70;61.60;;;;;;5054111;28;20082;-50
2023/05/09 09:49:26;;;;;;;9.80;8.88;;;20.80;62.60;;;;;;5053706;28;20090;-50
2023/05/09 09:51:58;;;;;;;10.55;9.18;;;20.90;62.30;;;;;;5053943;28;20044;-51
2023/05/09 09:54:28;;;;;;;10.27;9.00;;;20.90;61.90;;;;;;5053942;28;20059;-49
2023/05/09 09:56:53;;;;;;;;;;;21.10;61.90;;;;;;5036907;28;20094;-48
2023/05/09 09:59:24;;;;;;;11.95;9.75;;;21.10;61.10;;;;;;5036174;28;19912;-50
2023/05/09 10:02:02;;;;;;;11.20;10.02;;;21.20;60.60;;;;;;5073622;28;20086;-49
2023/05/09 10:04:31;;;;;;;12.23;9.88;;;21.30;60.40;;;;;;5072803;28;20032;-50
2023/05/09 10:07:20;;;;;;;9.73;8.45;;;21.40;60.80;;;;;;5056341;28;20048;-49
2023/05/09 10:09:48;;;;;;;9.88;8.98;;;21.40;61.60;;;;;;5064162;28;20057;-49
2023/05/09 10:12:18;;;;;;;10.10;9.10;;;21.60;61.20;;;;;;5053567;28;20025;-49
2023/05/09 10:14:46;;;;;;;10.20;9.10;;;21.60;61.50;;;;;;5053791;28;20052;-48
2023/05/09 10:17:14;;;;;;;12.18;10.98;;;22.00;60.40;;;;;;5053253;28;20155;-49
2023/05/09 10:19:45;;;;;;;11.68;10.48;;;22.60;58.90;;;;;;5053464;28;20025;-50
2023/05/09 10:22:14;;;;;;;11.50;10.40;;;22.70;58.20;;;;;;5035672;28;20025;-49
2023/05/09 10:25:12;;;;;;;12.02;9.18;;;22.80;58.50;;;;;;5053637;28;20036;-50
2023/05/09 10:27:43;;;;;;;19.77;10.90;;;22.90;58.20;;;;;;5050513;28;20040;-49
2023/05/09 10:30:20;;;;;;;11.95;10.20;;;23.10;57.90;;;;;;5053474;28;20040;-49
2023/05/09 10:33:12;;;;;;;14.65;11.75;;;23.00;56.30;;;;;;5053324;28;20025;-49
2023/05/09 10:35:45;;;;;;;11.68;10.68;;;22.80;58.30;;;;;;5053213;28;20040;-49
2023/05/09 10:38:12;;;;;;;11.15;10.02;;;22.90;58.10;;;;;;5053076;28;20025;-49
2023/05/09 10:40:40;;;;;;;11.45;10.25;;;22.80;59.10;;;;;;5053300;28;20025;-49
2023/05/09 10:43:10;;;;;;;14.57;12.25;;;22.90;58.30;;;;;;5052995;28;20406;-49
2023/05/09 10:45:37;;;;;;;12.90;11.60;;;23.10;57.70;;;;;;5053345;28;20036;-48
2023/05/09 10:48:07;;;;;;;12.50;11.30;;;23.00;57.60;;;;;;5053108;28;20539;-52
2023/05/09 10:50:35;;;;;;;;;;;23.00;57.80;;;;;;5053152;28;20078;-51
2023/05/09 10:53:23;;;;;;;12.30;10.68;;;23.00;58.60;;;;;;5052977;28;19920;-52
2023/05/09 10:55:57;;;;;;;11.43;10.23;;;23.00;58.80;;;;;;5054105;28;20025;-52
2023/05/09 10:58:33;;;;;;;13.63;10.25;;;23.10;59.60;;;;;;5053780;28;20025;-52
2023/05/09 11:01:01;;;;;;;11.73;10.43;;;23.40;59.60;;;;;;5053361;28;20028;-48
2023/05/09 11:03:54;;;;;;;12.77;11.57;;;23.30;59.50;;;;;;5052925;28;20013;-47
2023/05/09 11:06:57;;;;;;;14.07;11.00;;;23.40;59.60;;;;;;5034934;28;20029;-50
2023/05/09 11:09:30;;;;;;;12.63;11.43;;;23.30;58.60;;;;;;5052807;28;20064;-47
2023/05/09 11:12:14;;;;;;;11.63;10.60;;;23.50;58.50;;;;;;5052479;28;20067;-52
2023/05/09 11:15:06;;;;;;;11.70;10.30;;;23.70;59.10;;;;;;5052847;28;20116;-51
2023/05/09 11:17:37;;;;;;;11.32;10.27;;;23.90;58.10;;;;;;5053099;28;20040;-51
2023/05/09 11:20:08;;;;;;;12.55;10.98;;;23.50;58.20;;;;;;5052507;28;20369;-53
2023/05/09 11:22:42;;;;;;;12.18;11.10;;;23.50;58.70;;;;;;5035134;28;20569;-49
2023/05/09 11:25:11;;;;;;;12.07;10.98;;;23.60;59.10;;;;;;5052723;28;20167;-50
2023/05/09 11:27:44;;;;;;;11.38;10.38;;;23.70;59.70;;;;;;5052553;28;20021;-49
2023/05/09 11:30:13;;;;;;;16.40;12.65;;;23.90;57.40;;;;;;5054264;28;20033;-50
2023/05/09 11:32:57;;;;;;;16.10;10.82;;;23.60;57.80;;;;;;5056845;28;20029;-53
2023/05/09 11:35:27;;;;;;;12.45;11.25;;;23.40;58.80;;;;;;5056468;28;20040;-47
2023/05/09 11:38:11;;;;;;;;;;;23.20;59.20;;;;;;5039425;28;20071;-47
2023/05/09 11:40:41;;;;;;;14.25;11.35;;;22.80;59.80;;;;;;5056750;28;19920;-49
2023/05/09 11:43:14;;;;;;;12.80;11.57;;;22.60;60.60;;;;;;5056440;28;20029;-49
2023/05/09 11:45:41;;;;;;;12.63;10.80;;;22.60;62.20;;;;;;5056386;28;20032;-49
2023/05/09 11:48:11;;;;;;;12.48;11.32;;;22.80;61.90;;;;;;5056458;28;20025;-50
2023/05/09 11:50:39;;;;;;;12.63;11.32;;;22.90;61.20;;;;;;5056262;28;20021;-51
2023/05/09 11:53:11;;;;;;;13.50;12.13;;;22.80;61.10;;;;;;5056417;28;20025;-52
2023/05/09 11:55:40;;;;;;;13.02;11.70;;;22.60;61.10;;;;;;5056159;28;20035;-50
2023/05/09 11:58:07;;;;;;;11.23;10.23;;;22.50;61.00;;;;;;5056206;28;20055;-51
2023/05/09 12:00:36;;;;;;;12.23;11.00;;;22.40;62.50;;;;;;5041507;28;20032;-48
2023/05/09 12:03:04;;;;;;;12.30;11.10;;;22.10;62.50;;;;;;5076252;28;20376;-48
2023/05/09 12:05:38;;;;;;;12.40;11.30;;;21.90;63.00;;;;;;5076024;28;20031;-50
2023/05/09 12:08:05;;;;;;;11.95;10.75;;;21.80;62.30;;;;;;5068581;28;20021;-52
2023/05/09 12:10:37;;;;;;;11.75;10.75;;;21.90;63.20;;;;;;5038180;28;20052;-47
2023/05/09 12:13:04;;;;;;;13.07;11.85;;;21.90;63.90;;;;;;5056021;28;20432;-49
2023/05/09 12:15:39;;;;;;;13.30;11.90;;;21.80;63.00;;;;;;5055795;28;20029;-51
2023/05/09 12:18:09;;;;;;;13.18;11.88;;;21.60;62.70;;;;;;5073543;28;20437;-50
2023/05/09 12:20:46;;;;;;;;;;;21.50;62.90;;;;;;5076216;28;20052;-47
2023/05/09 12:23:13;;;;;;;13.13;11.32;;;21.60;63.10;;;;;;5075769;28;20306;-48
2023/05/09 12:26:00;;;;;;;13.98;10.73;;;21.60;63.40;;;;;;5070325;28;20033;-53
2023/05/09 12:28:27;;;;;;;13.10;11.70;;;21.60;63.90;;;;;;5055259;28;20518;-47
2023/05/09 12:30:54;;;;;;;13.25;11.85;;;21.60;64.40;;;;;;5056730;28;20032;-50
2023/05/09 12:33:21;;;;;;;12.40;11.30;;;21.50;64.00;;;;;;5075739;28;20029;-48
2023/05/09 12:36:07;;;;;;;13.15;9.80;;;21.40;64.50;;;;;;5075265;28;20082;-46
2023/05/09 12:38:34;;;;;;;11.80;10.77;;;21.50;64.40;;;;;;5065191;28;20021;-52
2023/05/09 12:41:08;;;;;;;11.60;10.10;;;21.40;64.30;;;;;;5054661;28;20545;-48
2023/05/09 12:43:38;;;;;;;11.00;9.98;;;21.40;64.60;;;;;;5055210;28;20029;-51
2023/05/09 12:46:05;;;;;;;11.55;10.27;;;21.10;65.40;;;;;;5055202;28;20036;-51
2023/05/09 12:48:37;;;;;;;11.25;10.07;;;20.90;66.00;;;;;;5054938;28;20131;-49
2023/05/09 12:51:09;;;;;;;11.48;10.38;;;20.60;66.00;;;;;;5054050;28;20091;-49
2023/05/09 12:53:40;;;;;;;9.88;8.88;;;20.40;66.40;;;;;;5055204;28;20039;-48
2023/05/09 12:56:23;;;;;;;10.55;9.55;;;20.30;67.40;;;;;;5055131;28;20417;-52